Time,TemperatureF,DewpointF,PressureIn,WindDirection,WindDirectionDegrees,WindSpeedMPH,WindSpeedGustMPH,Humidity,HourlyPrecipIn,Conditions,Clouds,dailyrainin,SolarRadiationWatts/m^2,SoftwareType,DateUTC
2013-01-24 00:12:00,8.0,3.0,-100.00,NW,326,5.0,10.0,81,0.00,,,0.00,0.000000,,2013-01-24 05:12:00,
2013-01-24 00:23:00,8.0,3.0,-100.00,NW,326,5.0,10.0,81,0.00,,,0.00,0.000000,,2013-01-24 05:23:00,
2013-01-24 00:33:00,8.0,3.0,-100.00,NW,326,5.0,10.0,81,0.00,,,0.00,0.000000,,2013-01-24 05:33:00,
2013-01-24 00:43:00,8.0,3.0,-100.00,NW,326,5.0,10.0,81,0.00,,,0.00,0.000000,,2013-01-24 05:43:00,
2013-01-24 01:12:00,9.0,4.0,-100.00,NNW,345,5.0,9.0,81,0.00,,,0.00,1.000000,,2013-01-24 06:12:00,
2013-01-24 01:22:00,9.0,4.0,-100.00,NNW,345,5.0,9.0,81,0.00,,,0.00,1.000000,,2013-01-24 06:22:00,
2013-01-24 01:32:00,9.0,4.0,-100.00,NNW,345,5.0,9.0,81,0.00,,,0.00,1.000000,,2013-01-24 06:32:00,
2013-01-24 01:42:00,9.0,4.0,-100.00,NNW,345,5.0,9.0,81,0.00,,,0.00,1.000000,,2013-01-24 06:42:00,
2013-01-24 02:12:00,9.0,4.0,-100.00,North,350,7.0,12.0,80,0.00,,,0.00,1.000000,,2013-01-24 07:12:00,
2013-01-24 02:23:00,9.0,4.0,-100.00,North,350,7.0,12.0,80,0.00,,,0.00,1.000000,,2013-01-24 07:23:00,
2013-01-24 02:33:00,9.0,4.0,-100.00,North,350,7.0,12.0,80,0.00,,,0.00,1.000000,,2013-01-24 07:33:00,
2013-01-24 02:43:00,9.0,4.0,-100.00,North,350,7.0,12.0,80,0.00,,,0.00,1.000000,,2013-01-24 07:43:00,
2013-01-24 03:13:00,8.0,3.0,-100.00,North,353,6.0,16.0,78,0.00,,,0.00,0.000000,,2013-01-24 08:13:00,
2013-01-24 03:23:00,8.0,3.0,-100.00,North,353,6.0,16.0,78,0.00,,,0.00,0.000000,,2013-01-24 08:23:00,
2013-01-24 03:33:00,8.0,3.0,-100.00,North,353,6.0,16.0,78,0.00,,,0.00,0.000000,,2013-01-24 08:33:00,
2013-01-24 03:43:00,8.0,3.0,-100.00,North,353,6.0,16.0,78,0.00,,,0.00,0.000000,,2013-01-24 08:43:00,
2013-01-24 04:13:00,6.0,1.0,-100.00,NNW,348,5.0,12.0,80,0.00,,,0.00,0.000000,,2013-01-24 09:13:00,
2013-01-24 04:23:00,6.0,1.0,-100.00,NNW,348,5.0,12.0,80,0.00,,,0.00,0.000000,,2013-01-24 09:23:00,
2013-01-24 04:33:00,6.0,1.0,-100.00,NNW,348,5.0,12.0,80,0.00,,,0.00,0.000000,,2013-01-24 09:33:00,
2013-01-24 04:43:00,6.0,1.0,-100.00,NNW,348,5.0,12.0,80,0.00,,,0.00,0.000000,,2013-01-24 09:43:00,
2013-01-24 05:13:00,5.0,0.0,-100.00,North,357,5.0,11.0,79,0.00,,,0.00,0.000000,,2013-01-24 10:13:00,
2013-01-24 05:23:00,5.0,0.0,-100.00,North,357,5.0,11.0,79,0.00,,,0.00,0.000000,,2013-01-24 10:23:00,
2013-01-24 05:33:00,5.0,0.0,-100.00,North,357,5.0,11.0,79,0.00,,,0.00,0.000000,,2013-01-24 10:33:00,
2013-01-24 05:43:00,5.0,0.0,-100.00,North,357,5.0,11.0,79,0.00,,,0.00,0.000000,,2013-01-24 10:43:00,
2013-01-24 06:12:00,3.0,-2.0,-100.00,North,2,5.0,9.0,79,0.00,,,0.00,1.000000,,2013-01-24 11:12:00,
2013-01-24 06:23:00,3.0,-2.0,-100.00,North,2,5.0,9.0,79,0.00,,,0.00,1.000000,,2013-01-24 11:23:00,
2013-01-24 06:33:00,3.0,-2.0,-100.00,North,2,5.0,9.0,79,0.00,,,0.00,1.000000,,2013-01-24 11:33:00,
2013-01-24 06:43:00,3.0,-2.0,-100.00,North,2,5.0,9.0,79,0.00,,,0.00,1.000000,,2013-01-24 11:43:00,
2013-01-24 07:12:00,2.0,-3.0,-100.00,North,352,4.0,9.0,78,0.00,,,-99.99,0.000000,,2013-01-24 12:12:00,
2013-01-24 07:23:00,2.0,-3.0,-100.00,North,352,4.0,9.0,78,0.00,,,-99.99,0.000000,,2013-01-24 12:23:00,
2013-01-24 07:33:00,2.0,-3.0,-100.00,North,352,4.0,9.0,78,0.00,,,-99.99,0.000000,,2013-01-24 12:33:00,
2013-01-24 07:43:00,2.0,-3.0,-100.00,North,352,4.0,9.0,78,0.00,,,-99.99,0.000000,,2013-01-24 12:43:00,
2013-01-24 08:13:00,1.0,-5.0,-100.00,NNW,334,4.0,10.0,76,0.00,,,0.00,1.000000,,2013-01-24 13:13:00,
2013-01-24 08:23:00,1.0,-5.0,-100.00,NNW,334,4.0,10.0,76,0.00,,,0.00,1.000000,,2013-01-24 13:23:00,
2013-01-24 08:33:00,1.0,-5.0,-100.00,NNW,334,4.0,10.0,76,0.00,,,0.00,1.000000,,2013-01-24 13:33:00,
2013-01-24 08:43:00,1.0,-5.0,-100.00,NNW,334,4.0,10.0,76,0.00,,,0.00,1.000000,,2013-01-24 13:43:00,
2013-01-24 09:13:00,1.0,-4.0,-100.00,NW,325,3.0,7.0,77,0.00,,,-99.99,10.000000,,2013-01-24 14:13:00,
2013-01-24 09:23:00,1.0,-4.0,-100.00,NW,325,3.0,7.0,77,0.00,,,-99.99,10.000000,,2013-01-24 14:23:00,
2013-01-24 09:33:00,1.0,-4.0,-100.00,NW,325,3.0,7.0,77,0.00,,,-99.99,10.000000,,2013-01-24 14:33:00,
2013-01-24 09:43:00,1.0,-4.0,-100.00,NW,325,3.0,7.0,77,0.00,,,-99.99,10.000000,,2013-01-24 14:43:00,
2013-01-24 10:13:00,6.0,-3.0,-100.00,NW,316,6.0,11.0,66,0.00,,,0.00,94.000000,,2013-01-24 15:13:00,
2013-01-24 10:23:00,6.0,-3.0,-100.00,NW,316,6.0,11.0,66,0.00,,,0.00,94.000000,,2013-01-24 15:23:00,
2013-01-24 10:33:00,6.0,-3.0,-100.00,NW,316,6.0,11.0,66,0.00,,,0.00,94.000000,,2013-01-24 15:33:00,
2013-01-24 10:43:00,6.0,-3.0,-100.00,NW,316,6.0,11.0,66,0.00,,,0.00,94.000000,,2013-01-24 15:43:00,
2013-01-24 11:12:00,7.0,-4.0,-100.00,NNW,337,7.0,13.0,60,0.00,,,0.00,167.000000,,2013-01-24 16:12:00,
2013-01-24 11:23:00,7.0,-4.0,-100.00,NNW,337,7.0,13.0,60,0.00,,,0.00,167.000000,,2013-01-24 16:23:00,
2013-01-24 11:33:00,7.0,-4.0,-100.00,NNW,337,7.0,13.0,60,0.00,,,0.00,167.000000,,2013-01-24 16:33:00,
2013-01-24 11:43:00,7.0,-4.0,-100.00,NNW,337,7.0,13.0,60,0.00,,,0.00,167.000000,,2013-01-24 16:43:00,
2013-01-24 12:12:00,8.0,-6.0,-100.00,NW,323,7.0,13.0,53,0.00,,,0.00,241.000000,,2013-01-24 17:12:00,
2013-01-24 12:22:00,8.0,-6.0,-100.00,NW,323,7.0,13.0,53,0.00,,,0.00,241.000000,,2013-01-24 17:22:00,
2013-01-24 12:32:00,8.0,-6.0,-100.00,NW,323,7.0,13.0,53,0.00,,,0.00,241.000000,,2013-01-24 17:32:00,
2013-01-24 12:42:00,8.0,-6.0,-100.00,NW,323,7.0,13.0,53,0.00,,,0.00,241.000000,,2013-01-24 17:42:00,
2013-01-24 13:13:00,11.0,-7.0,-100.00,North,349,7.0,14.0,44,0.00,,,0.00,327.000000,,2013-01-24 18:13:00,
2013-01-24 13:23:00,11.0,-7.0,-100.00,North,349,7.0,14.0,44,0.00,,,0.00,327.000000,,2013-01-24 18:23:00,
2013-01-24 13:33:00,11.0,-7.0,-100.00,North,349,7.0,14.0,44,0.00,,,0.00,327.000000,,2013-01-24 18:33:00,
2013-01-24 13:42:00,11.0,-7.0,-100.00,North,349,7.0,14.0,44,0.00,,,0.00,327.000000,,2013-01-24 18:42:00,
2013-01-24 14:13:00,12.0,-8.0,-100.00,NW,309,5.0,13.0,40,0.00,,,0.00,471.000000,,2013-01-24 19:13:00,
2013-01-24 14:22:00,12.0,-8.0,-100.00,NW,309,5.0,13.0,40,0.00,,,0.00,471.000000,,2013-01-24 19:22:00,
2013-01-24 14:33:00,12.0,-8.0,-100.00,NW,309,5.0,13.0,40,0.00,,,0.00,471.000000,,2013-01-24 19:33:00,
2013-01-24 14:42:00,12.0,-8.0,-100.00,NW,309,5.0,13.0,40,0.00,,,0.00,471.000000,,2013-01-24 19:42:00,
2013-01-24 15:12:00,12.0,-8.0,-100.00,WNW,301,7.0,12.0,39,0.00,,,0.00,427.000000,,2013-01-24 20:12:00,
2013-01-24 15:22:00,12.0,-8.0,-100.00,WNW,301,7.0,12.0,39,0.00,,,0.00,427.000000,,2013-01-24 20:22:00,
2013-01-24 15:33:00,12.0,-8.0,-100.00,WNW,301,7.0,12.0,39,0.00,,,0.00,427.000000,,2013-01-24 20:33:00,
2013-01-24 15:42:00,12.0,-8.0,-100.00,WNW,301,7.0,12.0,39,0.00,,,0.00,427.000000,,2013-01-24 20:42:00,
2013-01-24 16:03:00,13.0,-9.0,-100.00,NNW,330,5.0,11.0,36,0.00,,,0.00,321.000000,,2013-01-24 21:03:00,
2013-01-24 16:13:00,13.0,-9.0,-100.00,NNW,330,5.0,11.0,36,0.00,,,0.00,321.000000,,2013-01-24 21:13:00,
2013-01-24 16:23:00,13.0,-9.0,-100.00,NNW,330,5.0,11.0,36,0.00,,,0.00,321.000000,,2013-01-24 21:23:00,
2013-01-24 16:33:00,13.0,-9.0,-100.00,NNW,330,5.0,11.0,36,0.00,,,0.00,321.000000,,2013-01-24 21:33:00,
2013-01-24 16:43:00,13.0,-9.0,-100.00,NNW,330,5.0,11.0,36,0.00,,,0.00,321.000000,,2013-01-24 21:43:00,
2013-01-24 17:12:00,13.0,-8.0,-100.00,WNW,303,3.0,8.0,37,0.00,,,0.00,192.000000,,2013-01-24 22:12:00,
2013-01-24 17:22:00,13.0,-8.0,-100.00,WNW,303,3.0,8.0,37,0.00,,,0.00,192.000000,,2013-01-24 22:22:00,
2013-01-24 17:33:00,13.0,-8.0,-100.00,WNW,303,3.0,8.0,37,0.00,,,0.00,192.000000,,2013-01-24 22:33:00,
2013-01-24 17:42:00,13.0,-8.0,-100.00,WNW,303,3.0,8.0,37,0.00,,,0.00,192.000000,,2013-01-24 22:42:00,
2013-01-24 18:13:00,7.0,-9.0,-100.00,WNW,302,2.0,7.0,47,0.00,,,0.00,28.000000,,2013-01-24 23:13:00,
2013-01-24 18:22:00,7.0,-9.0,-100.00,WNW,302,2.0,7.0,47,0.00,,,0.00,28.000000,,2013-01-24 23:22:00,
2013-01-24 18:32:00,7.0,-9.0,-100.00,WNW,302,2.0,7.0,47,0.00,,,0.00,28.000000,,2013-01-24 23:32:00,
2013-01-24 18:42:00,7.0,-9.0,-100.00,WNW,302,2.0,7.0,47,0.00,,,0.00,28.000000,,2013-01-24 23:42:00,
2013-01-24 19:12:00,0.0,-8.0,-100.00,NNE,15,0.0,3.0,69,0.00,,,0.00,1.000000,,2013-01-25 00:12:00,
2013-01-24 19:22:00,0.0,-8.0,-100.00,NNE,15,0.0,3.0,69,0.00,,,0.00,1.000000,,2013-01-25 00:22:00,
2013-01-24 19:32:00,0.0,-8.0,-100.00,NNE,15,0.0,3.0,69,0.00,,,0.00,1.000000,,2013-01-25 00:32:00,
2013-01-24 19:42:00,0.0,-8.0,-100.00,NNE,15,0.0,3.0,69,0.00,,,0.00,1.000000,,2013-01-25 00:42:00,
2013-01-24 20:13:00,-2.0,-8.0,-100.00,WNW,299,2.0,2.0,74,0.00,,,0.00,0.000000,,2013-01-25 01:13:00,
2013-01-24 20:22:00,-2.0,-8.0,-100.00,WNW,299,2.0,2.0,74,0.00,,,0.00,0.000000,,2013-01-25 01:22:00,
2013-01-24 20:32:00,-2.0,-8.0,-100.00,WNW,299,2.0,2.0,74,0.00,,,0.00,0.000000,,2013-01-25 01:32:00,
2013-01-24 20:42:00,-2.0,-8.0,-100.00,WNW,299,2.0,2.0,74,0.00,,,0.00,0.000000,,2013-01-25 01:42:00,
2013-01-24 21:03:00,-3.0,-9.0,-100.00,NNE,25,2.0,2.0,76,0.00,,,0.00,0.000000,,2013-01-25 02:03:00,
2013-01-24 21:12:00,-3.0,-9.0,-100.00,NNE,25,2.0,2.0,76,0.00,,,0.00,0.000000,,2013-01-25 02:12:00,
2013-01-24 21:22:00,-3.0,-9.0,-100.00,NNE,25,2.0,2.0,76,0.00,,,0.00,0.000000,,2013-01-25 02:22:00,
2013-01-24 21:33:00,-3.0,-9.0,-100.00,NNE,25,2.0,2.0,76,0.00,,,0.00,0.000000,,2013-01-25 02:33:00,
2013-01-24 21:42:00,-3.0,-9.0,-100.00,NNE,25,2.0,2.0,76,0.00,,,0.00,0.000000,,2013-01-25 02:42:00,
2013-01-24 22:12:00,-2.0,-8.0,-100.00,SW,230,0.0,2.0,75,0.00,,,0.00,0.000000,,2013-01-25 03:12:00,
2013-01-24 22:22:00,-2.0,-8.0,-100.00,SW,230,0.0,2.0,75,0.00,,,0.00,0.000000,,2013-01-25 03:22:00,
2013-01-24 22:33:00,-2.0,-8.0,-100.00,SW,230,0.0,2.0,75,0.00,,,0.00,0.000000,,2013-01-25 03:33:00,
2013-01-24 22:42:00,-2.0,-8.0,-100.00,SW,230,0.0,2.0,75,0.00,,,0.00,0.000000,,2013-01-25 03:42:00,
2013-01-24 23:12:00,-1.0,-7.0,-100.00,South,189,0.0,2.0,76,0.00,,,0.00,0.000000,,2013-01-25 04:12:00,
2013-01-24 23:22:00,-1.0,-7.0,-100.00,South,189,0.0,2.0,76,0.00,,,0.00,0.000000,,2013-01-25 04:22:00,
2013-01-24 23:32:00,-1.0,-7.0,-100.00,South,189,0.0,2.0,76,0.00,,,0.00,0.000000,,2013-01-25 04:32:00,
2013-01-24 23:42:00,-1.0,-7.0,-100.00,South,189,0.0,2.0,76,0.00,,,0.00,0.000000,,2013-01-25 04:42:00,